createdAt,value
2023-05-22T00:00:18.870Z,73.07
2023-05-22T00:02:47.045Z,73.00
2023-05-22T00:05:18.504Z,73.33
2023-05-22T00:07:47.914Z,74.19
2023-05-22T00:10:15.873Z,75.03
2023-05-22T00:12:43.858Z,75.52
2023-05-22T00:15:12.726Z,75.62
2023-05-22T00:17:40.811Z,75.51
2023-05-22T00:20:11.149Z,75.71
2023-05-22T00:22:39.216Z,75.43
2023-05-22T00:25:09.998Z,75.63
2023-05-22T00:27:37.973Z,75.63
2023-05-22T00:30:08.111Z,75.60
2023-05-22T00:32:36.210Z,75.01
2023-05-22T00:35:04.548Z,74.68
2023-05-22T00:37:32.566Z,74.86
2023-05-22T00:40:00.509Z,74.69
2023-05-22T00:42:29.941Z,74.38
2023-05-22T00:44:57.879Z,74.34
2023-05-22T00:47:27.113Z,74.35
2023-05-22T00:49:55.851Z,73.84
2023-05-22T00:52:23.877Z,73.59
2023-05-22T00:54:52.606Z,73.11
2023-05-22T00:57:22.846Z,72.65
2023-05-22T00:59:52.363Z,72.56
2023-05-22T01:02:21.381Z,72.24
2023-05-22T01:04:49.864Z,72.00
2023-05-22T01:07:18.743Z,71.94
2023-05-22T01:09:46.766Z,71.88
2023-05-22T01:12:23.127Z,71.86
2023-05-22T01:15:02.752Z,71.58
2023-05-22T01:18:01.298Z,71.91
2023-05-22T01:20:34.353Z,71.56
2023-05-22T01:23:30.177Z,71.83
2023-05-22T01:26:13.974Z,71.63
2023-05-22T01:28:53.499Z,71.87
2023-05-22T01:31:26.752Z,71.66
2023-05-22T01:33:57.394Z,71.71
2023-05-22T01:36:29.825Z,72.38
2023-05-22T01:39:01.355Z,72.17
2023-05-22T01:41:30.579Z,72.50
2023-05-22T01:43:58.890Z,72.55
2023-05-22T01:46:28.878Z,72.34
2023-05-22T01:48:57.263Z,72.29
2023-05-22T01:51:34.551Z,72.36
2023-05-22T01:54:09.314Z,72.85
2023-05-22T01:56:48.907Z,73.50
2023-05-22T01:59:28.007Z,73.51
2023-05-22T02:02:01.728Z,73.63
2023-05-22T02:04:32.415Z,73.20
2023-05-22T02:07:01.840Z,72.92
2023-05-22T02:09:32.105Z,72.67
2023-05-22T02:12:01.693Z,73.05
2023-05-22T02:14:31.277Z,73.70
2023-05-22T02:17:02.140Z,73.88
2023-05-22T02:19:30.335Z,73.61
2023-05-22T02:21:58.327Z,73.42
2023-05-22T02:24:26.264Z,74.12
2023-05-22T02:26:54.734Z,73.95
2023-05-22T02:29:22.830Z,73.60
2023-05-22T02:31:50.898Z,72.87
2023-05-22T02:34:20.909Z,73.12
2023-05-22T02:36:51.062Z,72.73
2023-05-22T02:39:19.297Z,72.75
2023-05-22T02:41:47.267Z,72.84
2023-05-22T02:44:15.335Z,72.69
2023-05-22T02:46:44.300Z,72.80
2023-05-22T02:49:13.184Z,72.33
2023-05-22T02:51:47.495Z,72.18
2023-05-22T02:54:16.509Z,72.27
2023-05-22T02:56:44.901Z,72.31
2023-05-22T02:59:12.857Z,72.60
2023-05-22T03:01:44.465Z,72.68
2023-05-22T03:04:13.982Z,72.77
2023-05-22T03:06:46.389Z,73.51
2023-05-22T03:09:14.378Z,73.64
2023-05-22T03:11:42.383Z,73.84
2023-05-22T03:14:10.345Z,74.02
2023-05-22T03:16:38.478Z,73.69
2023-05-22T03:19:10.691Z,73.45
2023-05-22T03:21:39.113Z,73.48
2023-05-22T03:24:09.097Z,73.76
2023-05-22T03:26:37.266Z,73.42
2023-05-22T03:29:08.776Z,73.31
2023-05-22T03:31:39.539Z,72.33
2023-05-22T03:34:13.173Z,72.92
2023-05-22T03:36:46.025Z,72.95
2023-05-22T03:39:17.741Z,72.87
2023-05-22T03:41:55.414Z,72.58
2023-05-22T03:44:25.652Z,72.33
2023-05-22T03:46:54.765Z,73.01
2023-05-22T03:49:22.702Z,73.09
2023-05-22T03:51:50.804Z,72.59
2023-05-22T03:54:20.419Z,72.25
2023-05-22T03:56:48.325Z,71.93
2023-05-22T03:59:16.406Z,71.82
2023-05-22T04:01:46.579Z,71.63
2023-05-22T04:04:14.632Z,70.98
2023-05-22T04:06:43.887Z,70.93
2023-05-22T04:09:14.497Z,70.69
2023-05-22T04:11:43.824Z,70.63
2023-05-22T04:14:11.774Z,70.46
2023-05-22T04:16:42.252Z,70.09
2023-05-22T04:19:10.394Z,70.13
2023-05-22T04:21:39.291Z,69.88
2023-05-22T04:24:09.483Z,70.41
2023-05-22T04:26:39.942Z,69.81
2023-05-22T04:29:10.574Z,69.35
2023-05-22T04:31:38.884Z,69.56
2023-05-22T04:34:07.465Z,69.87
2023-05-22T04:36:35.942Z,69.97
2023-05-22T04:39:04.085Z,70.13
2023-05-22T04:41:32.497Z,69.96
2023-05-22T04:44:00.458Z,69.96
2023-05-22T04:46:29.799Z,69.99
2023-05-22T04:49:02.130Z,69.93
2023-05-22T04:51:31.382Z,69.64
2023-05-22T04:53:59.504Z,69.54
2023-05-22T04:56:36.353Z,69.21
2023-05-22T04:59:11.490Z,69.59
2023-05-22T05:01:41.349Z,69.97
2023-05-22T05:04:09.542Z,70.42
2023-05-22T05:06:37.883Z,70.60
2023-05-22T05:09:06.378Z,70.31
2023-05-22T05:11:34.336Z,71.30
2023-05-22T05:14:02.576Z,70.64
2023-05-22T05:16:30.591Z,69.88
2023-05-22T05:18:59.934Z,69.70
2023-05-22T05:21:28.826Z,68.88
2023-05-22T05:24:00.952Z,68.89
2023-05-22T05:26:28.870Z,68.86
2023-05-22T05:28:57.438Z,68.41
2023-05-22T05:31:30.942Z,68.41
2023-05-22T05:34:22.786Z,68.40
2023-05-22T05:37:10.945Z,67.71
2023-05-22T05:39:39.719Z,67.11
2023-05-22T05:42:10.504Z,66.04
2023-05-22T05:44:38.616Z,65.23
2023-05-22T05:47:08.550Z,64.75
2023-05-22T05:49:38.615Z,64.63
2023-05-22T05:52:08.227Z,64.74
2023-05-22T05:54:37.387Z,64.93
2023-05-22T05:57:13.134Z,64.73
2023-05-22T05:59:41.297Z,64.27
2023-05-22T06:02:30.199Z,64.22
2023-05-22T06:05:02.990Z,64.31
2023-05-22T06:07:38.036Z,64.30
2023-05-22T06:10:08.373Z,64.29
2023-05-22T06:12:56.632Z,64.40
2023-05-22T06:15:24.825Z,63.24
2023-05-22T06:17:52.794Z,62.82
2023-05-22T06:20:25.054Z,62.47
2023-05-22T06:22:53.247Z,62.85
2023-05-22T06:25:21.287Z,63.19
2023-05-22T06:27:50.137Z,62.73
2023-05-22T06:30:25.432Z,62.99
2023-05-22T06:33:06.476Z,63.37
2023-05-22T06:35:35.835Z,62.80
2023-05-22T06:38:04.109Z,62.38
2023-05-22T06:40:32.088Z,61.55
2023-05-22T06:43:08.992Z,61.02
2023-05-22T06:45:46.775Z,60.52
2023-05-22T06:48:23.839Z,60.73
2023-05-22T06:51:09.898Z,61.38
2023-05-22T06:53:38.168Z,61.77
2023-05-22T06:56:10.866Z,61.40
2023-05-22T06:58:50.761Z,61.07
2023-05-22T07:01:20.154Z,61.98
2023-05-22T07:04:01.933Z,61.53
2023-05-22T07:06:39.154Z,61.50
2023-05-22T07:09:08.556Z,61.55
2023-05-22T07:11:36.787Z,60.71
2023-05-22T07:14:05.001Z,60.60
2023-05-22T07:16:33.346Z,60.19
2023-05-22T07:19:03.410Z,59.31
2023-05-22T07:21:31.949Z,58.99
2023-05-22T07:24:03.344Z,58.16
2023-05-22T07:26:31.765Z,58.10
2023-05-22T07:29:06.673Z,58.36
2023-05-22T07:31:35.497Z,58.73
2023-05-22T07:34:03.644Z,58.29
2023-05-22T07:36:31.849Z,58.75
2023-05-22T07:39:01.442Z,58.82
2023-05-22T07:41:29.768Z,59.45
2023-05-22T07:43:58.045Z,59.96
2023-05-22T07:46:31.557Z,59.84
2023-05-22T07:49:08.386Z,59.12
2023-05-22T07:51:37.875Z,58.77
2023-05-22T07:54:08.020Z,58.38
2023-05-22T07:56:39.596Z,57.48
2023-05-22T07:59:09.116Z,57.50
2023-05-22T08:01:37.556Z,58.23
2023-05-22T08:04:06.434Z,57.82
2023-05-22T08:06:36.050Z,57.86
2023-05-22T08:09:05.477Z,58.20
2023-05-22T08:11:39.091Z,58.23
2023-05-22T08:14:07.870Z,58.05
2023-05-22T08:16:35.847Z,58.27
2023-05-22T08:19:04.480Z,58.15
2023-05-22T08:21:34.609Z,57.96
2023-05-22T08:24:02.809Z,57.52
2023-05-22T08:26:32.224Z,56.75
2023-05-22T08:29:01.936Z,56.23
2023-05-22T08:31:30.106Z,55.96
2023-05-22T08:34:02.214Z,55.62
2023-05-22T08:36:34.098Z,55.30
2023-05-22T08:39:02.402Z,55.46
2023-05-22T08:41:30.730Z,55.44
2023-05-22T08:43:58.787Z,55.12
2023-05-22T08:46:29.199Z,55.19
2023-05-22T08:48:58.495Z,55.06
2023-05-22T08:51:31.329Z,55.35
2023-05-22T08:54:00.989Z,54.71
2023-05-22T08:56:29.836Z,53.55
2023-05-22T08:58:59.399Z,52.60
2023-05-22T09:01:29.594Z,51.46
2023-05-22T09:04:01.765Z,50.71
2023-05-22T09:06:30.187Z,50.43
2023-05-22T09:08:58.673Z,51.01
2023-05-22T09:11:27.037Z,51.44
2023-05-22T09:14:07.846Z,51.94
2023-05-22T09:16:45.260Z,51.52
2023-05-22T09:19:13.749Z,51.60
2023-05-22T09:21:42.238Z,51.81
2023-05-22T09:24:12.006Z,51.83
2023-05-22T09:26:40.652Z,52.70
2023-05-22T09:29:09.093Z,53.23
2023-05-22T09:31:43.409Z,52.76
2023-05-22T09:34:14.330Z,51.82
2023-05-22T09:36:45.349Z,51.16
2023-05-22T09:39:13.407Z,50.86
2023-05-22T09:41:41.392Z,51.54
2023-05-22T09:44:16.588Z,52.14
2023-05-22T09:46:47.451Z,53.19
2023-05-22T09:49:17.042Z,53.48
2023-05-22T09:51:48.665Z,53.71
2023-05-22T09:54:17.604Z,53.61
2023-05-22T09:56:50.358Z,53.42
2023-05-22T09:59:22.479Z,52.23
2023-05-22T10:01:52.748Z,51.38
2023-05-22T10:04:23.852Z,51.04
2023-05-22T10:06:54.410Z,50.23
2023-05-22T10:09:25.757Z,50.69
2023-05-22T10:11:56.241Z,51.71
2023-05-22T10:14:25.495Z,51.55
2023-05-22T10:16:56.876Z,50.32
2023-05-22T10:19:27.870Z,50.35
2023-05-22T10:21:57.911Z,51.10
2023-05-22T10:24:26.419Z,50.49
2023-05-22T10:26:55.412Z,50.71
2023-05-22T10:33:40.193Z,52.48
2023-05-22T10:36:11.278Z,52.83
2023-05-22T10:38:53.917Z,52.88
2023-05-22T10:41:22.367Z,53.10
2023-05-22T10:43:51.299Z,52.51
2023-05-22T10:46:19.939Z,52.53
2023-05-22T10:48:50.866Z,52.64
2023-05-22T10:51:21.877Z,53.24
2023-05-22T10:53:54.140Z,53.87
2023-05-22T10:56:25.112Z,54.68
2023-05-22T10:59:02.760Z,54.73
2023-05-22T11:01:30.779Z,54.99
2023-05-22T11:04:12.973Z,55.15
2023-05-22T11:06:46.289Z,55.15
2023-05-22T11:09:27.443Z,54.56
2023-05-22T11:12:18.206Z,54.23
2023-05-22T11:14:51.085Z,54.23
2023-05-22T11:17:21.817Z,53.82
2023-05-22T11:19:59.019Z,54.02
2023-05-22T11:22:37.902Z,54.37
2023-05-22T11:25:09.212Z,54.72
2023-05-22T11:27:39.243Z,55.15
2023-05-22T11:30:09.533Z,55.28
2023-05-22T11:32:38.393Z,55.73
2023-05-22T11:35:09.235Z,55.07
2023-05-22T11:37:40.709Z,54.45
2023-05-22T11:40:10.815Z,53.43
2023-05-22T11:42:39.061Z,52.98
2023-05-22T11:45:08.347Z,52.94
2023-05-22T11:47:36.455Z,51.66
2023-05-22T11:50:06.688Z,51.63
2023-05-22T11:52:37.776Z,51.20
2023-05-22T11:55:06.843Z,50.86
2023-05-22T11:57:35.827Z,50.27
2023-05-22T12:00:06.527Z,49.98
2023-05-22T12:02:40.212Z,49.54
2023-05-22T12:05:11.903Z,48.72
2023-05-22T12:07:41.409Z,48.49
2023-05-22T12:10:11.038Z,48.51
2023-05-22T12:12:39.289Z,47.73
2023-05-22T12:15:08.099Z,47.78
2023-05-22T12:17:37.463Z,47.36
2023-05-22T12:20:07.098Z,47.26
2023-05-22T12:22:35.077Z,47.68
2023-05-22T12:25:15.128Z,47.24
2023-05-22T12:27:44.796Z,47.31
2023-05-22T12:30:15.006Z,47.70
2023-05-22T12:32:48.503Z,47.19
2023-05-22T12:35:17.347Z,46.81
2023-05-22T12:37:51.198Z,47.16
2023-05-22T12:40:20.657Z,46.74
2023-05-22T12:42:52.193Z,47.16
2023-05-22T12:45:20.153Z,46.12
2023-05-22T12:47:48.038Z,46.16
2023-05-22T12:50:16.178Z,46.28
2023-05-22T12:52:44.203Z,45.87
2023-05-22T12:55:12.180Z,45.64
2023-05-22T12:57:41.443Z,45.71
2023-05-22T13:00:10.158Z,45.01
2023-05-22T13:02:38.170Z,44.73
2023-05-22T13:05:07.108Z,44.40
2023-05-22T13:07:35.149Z,43.71
2023-05-22T13:10:04.969Z,43.10
2023-05-22T13:12:33.332Z,43.00
2023-05-22T13:15:03.163Z,42.20
2023-05-22T13:17:32.683Z,41.85
2023-05-22T13:20:00.667Z,40.67
2023-05-22T13:22:28.580Z,41.26
2023-05-22T13:24:56.441Z,40.37
2023-05-22T13:27:24.645Z,40.25
2023-05-22T13:29:52.616Z,39.25
2023-05-22T13:32:21.892Z,39.49
2023-05-22T13:34:52.128Z,38.31
2023-05-22T13:37:21.570Z,38.85
2023-05-22T13:39:49.464Z,39.05
2023-05-22T13:42:17.481Z,38.45
2023-05-22T13:44:46.837Z,38.53
2023-05-22T13:47:15.709Z,39.29
2023-05-22T13:49:45.017Z,39.91
2023-05-22T13:52:12.928Z,40.45
2023-05-22T13:54:41.091Z,40.27
2023-05-22T13:57:09.085Z,40.28
2023-05-22T13:59:37.035Z,39.30
2023-05-22T14:02:05.252Z,38.58
2023-05-22T14:04:33.215Z,38.71
2023-05-22T14:07:02.734Z,39.03
2023-05-22T14:09:31.430Z,39.11
2023-05-22T14:11:59.374Z,39.73
2023-05-22T14:14:27.328Z,40.34
2023-05-22T14:16:55.456Z,40.03
2023-05-22T14:19:24.500Z,40.64
2023-05-22T14:21:52.737Z,41.06
2023-05-22T14:24:21.984Z,41.41
2023-05-22T14:26:49.897Z,41.87
2023-05-22T14:29:18.049Z,42.48
2023-05-22T14:31:50.425Z,41.72
2023-05-22T14:34:19.746Z,41.16
2023-05-22T14:36:48.301Z,41.18
2023-05-22T14:39:16.333Z,41.47
2023-05-22T14:41:45.722Z,41.46
2023-05-22T14:44:13.625Z,41.56
2023-05-22T14:46:41.552Z,41.34
2023-05-22T14:49:09.560Z,41.71
2023-05-22T14:51:37.467Z,41.93
2023-05-22T14:54:06.835Z,42.40
2023-05-22T14:56:35.047Z,41.82
2023-05-22T14:59:04.335Z,42.71
2023-05-22T15:01:32.319Z,43.27
2023-05-22T15:04:00.324Z,43.82
2023-05-22T15:06:28.458Z,44.60
2023-05-22T15:08:56.366Z,45.29
2023-05-22T15:11:24.287Z,43.83
2023-05-22T15:13:54.175Z,44.38
2023-05-22T15:16:23.648Z,44.58
2023-05-22T15:18:51.793Z,44.63
2023-05-22T15:21:20.129Z,45.28
2023-05-22T15:23:48.074Z,47.47
2023-05-22T15:26:16.365Z,48.43
2023-05-22T15:28:44.310Z,48.87
2023-05-22T15:31:13.907Z,49.23
2023-05-22T15:33:43.358Z,50.44
2023-05-22T15:36:11.321Z,50.69
2023-05-22T15:38:39.297Z,51.04
2023-05-22T15:41:07.178Z,50.79
2023-05-22T15:43:35.326Z,50.40
2023-05-22T15:46:04.487Z,50.42
2023-05-22T15:48:33.243Z,50.35
2023-05-22T15:51:07.284Z,50.53
2023-05-22T15:53:35.935Z,50.70
2023-05-22T15:56:04.178Z,50.30
2023-05-22T15:58:32.099Z,50.68
2023-05-22T16:01:00.456Z,51.24
2023-05-22T16:03:28.528Z,51.87
2023-05-22T16:05:56.619Z,51.60
2023-05-22T16:08:29.407Z,51.55
2023-05-22T16:11:00.693Z,51.91
2023-05-22T16:13:29.264Z,51.43
2023-05-22T16:15:57.339Z,50.78
2023-05-22T16:18:25.234Z,49.43
2023-05-22T16:20:53.193Z,49.23
2023-05-22T16:23:21.416Z,48.67
2023-05-22T16:25:50.977Z,48.80
2023-05-22T16:28:18.970Z,48.54
2023-05-22T16:30:46.944Z,48.30
2023-05-22T16:33:14.974Z,47.75
2023-05-22T16:35:46.751Z,48.03
2023-05-22T16:38:15.210Z,47.26
2023-05-22T16:40:43.219Z,46.52
2023-05-22T16:43:13.808Z,46.24
2023-05-22T16:45:46.548Z,45.89
2023-05-22T16:48:14.636Z,45.16
2023-05-22T16:50:44.122Z,44.92
2023-05-22T16:53:12.281Z,45.02
2023-05-22T16:55:40.605Z,44.42
2023-05-22T16:58:09.552Z,43.74
2023-05-22T17:00:40.297Z,44.15
2023-05-22T17:03:09.308Z,44.09
2023-05-22T17:05:38.728Z,44.35
2023-05-22T17:08:07.082Z,45.14
2023-05-22T17:10:35.071Z,46.01
2023-05-22T17:13:03.041Z,47.10
2023-05-22T17:15:31.183Z,47.58
2023-05-22T17:18:00.534Z,48.09
2023-05-22T17:20:29.411Z,48.83
2023-05-22T17:22:57.302Z,49.88
2023-05-22T17:25:25.418Z,50.26
2023-05-22T17:27:53.350Z,50.05
2023-05-22T17:30:21.689Z,50.52
2023-05-22T17:32:50.118Z,50.71
2023-05-22T17:35:19.406Z,50.87
2023-05-22T17:37:47.320Z,51.27
2023-05-22T17:40:15.260Z,51.43
2023-05-22T17:42:43.238Z,51.82
2023-05-22T17:45:11.782Z,52.39
2023-05-22T17:47:40.114Z,53.16
2023-05-22T17:50:09.062Z,53.87
2023-05-22T17:52:38.420Z,54.73
2023-05-22T17:55:06.950Z,55.46
2023-05-22T17:57:35.271Z,56.19
2023-05-22T18:00:05.760Z,56.89
2023-05-22T18:02:39.960Z,57.72
2023-05-22T18:05:12.174Z,58.35
2023-05-22T18:07:41.927Z,58.82
2023-05-22T18:10:10.582Z,59.50
2023-05-22T18:12:38.688Z,60.29
2023-05-22T18:15:09.544Z,60.20
2023-05-22T18:17:37.857Z,60.55
2023-05-22T18:20:07.455Z,60.74
2023-05-22T18:22:35.725Z,60.68
2023-05-22T18:25:05.552Z,60.98
2023-05-22T18:27:33.781Z,61.08
2023-05-22T18:30:01.871Z,60.87
2023-05-22T18:32:29.994Z,61.17
2023-05-22T18:34:58.553Z,61.28
2023-05-22T18:37:27.956Z,61.47
2023-05-22T18:39:55.974Z,61.45
2023-05-22T18:42:25.279Z,61.66
2023-05-22T18:44:53.368Z,61.95
2023-05-22T18:47:21.439Z,62.40
2023-05-22T18:49:49.451Z,62.33
2023-05-22T18:52:17.408Z,63.07
2023-05-22T18:54:48.528Z,63.24
2023-05-22T18:57:16.607Z,63.42
2023-05-22T18:59:47.501Z,63.70
2023-05-22T19:02:21.222Z,64.01
2023-05-22T19:04:49.850Z,64.32
2023-05-22T19:07:17.804Z,64.52
2023-05-22T19:09:45.951Z,64.89
2023-05-22T19:12:14.144Z,64.89
2023-05-22T19:14:42.057Z,65.09
2023-05-22T19:17:11.557Z,65.36
2023-05-22T19:19:39.556Z,65.71
2023-05-22T19:22:07.559Z,65.95
2023-05-22T19:24:36.371Z,66.20
2023-05-22T19:27:04.622Z,66.50
2023-05-22T19:29:32.513Z,66.71
2023-05-22T19:32:00.502Z,66.88
2023-05-22T19:34:29.821Z,67.07
2023-05-22T19:36:57.923Z,67.65
2023-05-22T19:39:26.067Z,68.53
2023-05-22T19:41:54.613Z,68.61
2023-05-22T19:44:22.666Z,69.32
2023-05-22T19:46:50.766Z,68.87
2023-05-22T19:49:19.876Z,68.73
2023-05-22T19:51:49.267Z,68.93
2023-05-22T19:54:17.166Z,68.98
2023-05-22T19:56:45.059Z,68.53
2023-05-22T19:59:12.904Z,68.86
2023-05-22T20:01:40.804Z,68.95
2023-05-22T20:04:08.918Z,69.12
2023-05-22T20:06:36.901Z,69.25
2023-05-22T20:09:06.397Z,69.25
2023-05-22T20:11:34.325Z,68.73
2023-05-22T20:14:03.387Z,68.84
2023-05-22T20:16:31.694Z,68.76
2023-05-22T20:18:59.770Z,68.64
2023-05-22T20:21:27.774Z,68.80
2023-05-22T20:23:55.874Z,69.15
2023-05-22T20:26:25.107Z,69.68
2023-05-22T20:28:53.258Z,70.27
2023-05-22T20:31:21.218Z,71.50
2023-05-22T20:33:49.323Z,71.61
2023-05-22T20:36:18.775Z,71.38
2023-05-22T20:38:46.761Z,71.79
2023-05-22T20:41:15.496Z,71.58
2023-05-22T20:43:44.998Z,71.11
2023-05-22T20:46:13.215Z,70.48
2023-05-22T20:48:46.748Z,70.21
2023-05-22T20:51:15.652Z,69.90
2023-05-22T20:53:44.145Z,69.80
2023-05-22T20:56:12.046Z,69.52
2023-05-22T20:58:40.028Z,69.39
2023-05-22T21:01:09.502Z,69.43
2023-05-22T21:03:37.827Z,69.65
2023-05-22T21:06:06.272Z,69.37
2023-05-22T21:08:34.214Z,69.57
2023-05-22T21:11:02.121Z,69.60
2023-05-22T21:13:30.086Z,69.59
2023-05-22T21:15:58.010Z,69.66
2023-05-22T21:18:27.367Z,69.64
2023-05-22T21:20:55.400Z,69.60
2023-05-22T21:23:24.722Z,69.32
2023-05-22T21:25:52.789Z,69.48
2023-05-22T21:28:20.724Z,69.21
2023-05-22T21:30:48.841Z,70.07
2023-05-22T21:33:16.776Z,70.39
2023-05-22T21:35:46.008Z,70.93
2023-05-22T21:38:13.935Z,71.11
2023-05-22T21:40:42.724Z,71.42
2023-05-22T21:43:11.006Z,71.01
2023-05-22T21:45:39.031Z,70.43
2023-05-22T21:48:07.148Z,70.61
2023-05-22T21:50:35.057Z,70.23
2023-05-22T21:53:04.331Z,69.95
2023-05-22T21:55:32.645Z,69.71
2023-05-22T21:58:00.582Z,69.66
2023-05-22T22:00:29.546Z,69.40
2023-05-22T22:02:57.743Z,69.94
2023-05-22T22:05:27.586Z,70.04
2023-05-22T22:07:55.582Z,70.36
2023-05-22T22:10:24.822Z,70.37
2023-05-22T22:12:52.728Z,70.80
2023-05-22T22:15:21.780Z,70.45
2023-05-22T22:17:50.056Z,70.09
2023-05-22T22:20:20.415Z,69.63
2023-05-22T22:22:52.815Z,69.78
2023-05-22T22:25:20.900Z,69.96
2023-05-22T22:27:50.583Z,70.13
2023-05-22T22:30:18.516Z,70.49
2023-05-22T22:32:48.171Z,71.16
2023-05-22T22:35:16.860Z,71.29
2023-05-22T22:37:46.382Z,72.09
2023-05-22T22:40:14.486Z,72.20
2023-05-22T22:42:42.415Z,71.89
2023-05-22T22:45:12.040Z,71.74
2023-05-22T22:47:40.514Z,71.84
2023-05-22T22:50:10.096Z,71.78
2023-05-22T22:52:38.441Z,71.67
2023-05-22T22:55:07.624Z,71.45
2023-05-22T22:57:36.042Z,71.28
2023-05-22T23:00:04.329Z,70.81
2023-05-22T23:02:34.312Z,70.34
2023-05-22T23:05:03.073Z,70.43
2023-05-22T23:07:31.144Z,69.98
2023-05-22T23:09:59.176Z,70.50
2023-05-22T23:12:27.090Z,70.58
2023-05-22T23:14:55.424Z,70.81
2023-05-22T23:17:23.281Z,71.00
2023-05-22T23:19:52.555Z,71.02
2023-05-22T23:22:20.460Z,70.84
2023-05-22T23:24:48.461Z,70.87
2023-05-22T23:27:16.491Z,70.66
2023-05-22T23:29:44.418Z,70.80
2023-05-22T23:32:14.537Z,70.48
2023-05-22T23:34:43.254Z,70.78
2023-05-22T23:37:12.474Z,71.12
2023-05-22T23:39:40.463Z,70.79
2023-05-22T23:42:09.776Z,71.00
2023-05-22T23:44:37.904Z,70.93
2023-05-22T23:47:06.576Z,71.22
2023-05-22T23:49:34.637Z,71.70
2023-05-22T23:52:02.557Z,71.64
2023-05-22T23:54:31.889Z,71.66
2023-05-22T23:56:59.740Z,71.46
2023-05-22T23:59:27.734Z,71.77
